Fort Collins, CO

10:47 AM MDT on September 22, 2014 (GMT -0600)
Greeley-Weld County | Change Station
CLOSE
Current Station
Airport
Location: Greeley,
Elevation: 4698 ft
Nearby Weather Stations

Elev 4698 ft 40.44 °N, 104.63 °W | Updated 12 minutes ago

Mostly Cloudy
Mostly Cloudy
64 °F
Feels Like 64 °F
N
5
Wind Variable Wind from South

Today
High -- | Low -- °F
--% Chance of Precip.
Yesterday
High -- | Low -- °F
Precip. -- in
6:47 AM 6:57 PM
Waning Crescent, 2% visible
Pressure 30.20 in
Visibility 10.0 miles
Clouds Few 10000 ft
Dew Point 48 °F
Humidity 56%
Rainfall 0.00 in
Snow Depth 0 in , 1 in , 85 in
UV 5 out of 12
Pollen 5.60 out of 12
Ozone Good
PM2.5 Good
Flu Activity Not available.
METAR KGXY 221635Z AUTO 18004KT 10SM FEW100 18/09 A3020 RMK AO1

More Conditions Fewer Conditions

Pressure 30.20 in
Visibility 10.0 miles
Clouds Few 10000 ft
Dew Point 48 °F
Humidity 56%
Rainfall 0.00 in
Snow Depth 0 in , 1 in , 85 in
UV 5 out of 12
Pollen 5.60 out of 12
Ozone Good
PM2.5 Good
Flu Activity Not available.
METAR KGXY 221635Z AUTO 18004KT 10SM FEW100 18/09 A3020 RMK AO1

More Conditions Fewer Conditions

Nowcast | as of 8:36 am MDT on September 22, 2014

Rain showers will become more numerous across the Front Range foothills and adjacent plains through mid morning hours...especially over the Denver area and extending through Douglas County. Rainfall rates will be around a tenth of an inch per hour.

×

10-Day Weather Forecast

Almanac

Astronomy

Sep. 22, 2014 Rise Set
Actual Time 6:47 AM MDT 6:57 PM MDT
Civil Twilight 6:20 AM MDT 7:24 PM MDT
Nautical Twilight 5:48 AM MDT 7:56 PM MDT
Astronomical Twilight 5:15 AM MDT 8:28 PM MDT
Moon 5:18 AM MDT 6:06 PM MDT
Length of Visible Light 13h 04m
Length of Day
12h 09m
Tomorrow will be 2m 40s shorter.
Waning Crescent, 2% of the Moon is Illuminated
Today
Waning Crescent
Sep 24
New
Oct 1
First Quarter
Oct 8
Full
Oct 15
Last Quarter

Today's Extremes

State Highs State Lows

Community

WunderPhotos

Upload Photos

1,755,480 photos uploaded!

WunderBlogs® & News

Nearby

Air Quality

  Air Quality AQ Index Pollutant
Yesterday Good
OZONE
Yesterday Good
PM2.5
Current Good
PM2.5
Current Good
OZONE
Monday Good
PM2.5
Monday Good
OZONE

Snow Depth

Station Depth Elevation
Cochetopa Pass 0 in 10020 ft
Joe Wright 1 in 10120 ft
Vail Mountain 85 in 10300 ft
Middle Fork Camp 0 in 9000 ft
Rawah 18 in 9020 ft

Earthquake Activity

City Distance Mag. Time & Date
No recent earthquake activity has been reported nearby.
Minimum magnitude displayed is 2.5.

Coastal Water Temperatures

Place Temperature
No Stations Reporting

Nearby Weather Stations